CheckWX is a tool to help pilots better visualize weather data.  It is not intended as a substitute for an official pre-flight weather briefing.

12:05:27 UTC

KLGU TAF
Logan-Cache Airport
Logan, Utah, USA
KLGU 171120Z 1712/1812 VRB04KT P6SM BKN200

Nov-17@
12:00 UTC

Nov-17 @ 12:00 UTC

Nov-18@
12:00 UTC

Nov-18 @ 12:00 UTC

KLGU 171120Z 1712/1812 VRB04KT P6SM BKN200
Wind
  • Variable at 4 KTS
Cloud Levels
  • Broken at 20,000' AGL